sensor_id;sensor_type;location;lat;lon;timestamp;temperature;humidity
66328;DHT22;53133;52.862;6.602;2022-11-23T00:00:04;8.10;99.90
66328;DHT22;53133;52.862;6.602;2022-11-23T00:02:29;8.10;99.90
66328;DHT22;53133;52.862;6.602;2022-11-23T00:04:55;8.20;99.90
66328;DHT22;53133;52.862;6.602;2022-11-23T00:07:20;8.10;99.90
66328;DHT22;53133;52.862;6.602;2022-11-23T00:09:46;8.20;99.90
66328;DHT22;53133;52.862;6.602;2022-11-23T00:12:12;8.20;99.90
66328;DHT22;53133;52.862;6.602;2022-11-23T00:14:37;8.20;99.90
66328;DHT22;53133;52.862;6.602;2022-11-23T00:17:03;8.20;99.90
66328;DHT22;53133;52.862;6.602;2022-11-23T00:19:28;8.20;99.90
66328;DHT22;53133;52.862;6.602;2022-11-23T00:21:54;8.20;99.90
66328;DHT22;53133;52.862;6.602;2022-11-23T00:24:19;8.20;99.90
66328;DHT22;53133;52.862;6.602;2022-11-23T00:26:45;8.20;99.90
66328;DHT22;53133;52.862;6.602;2022-11-23T00:29:11;8.20;99.90
66328;DHT22;53133;52.862;6.602;2022-11-23T00:31:36;8.20;99.90
66328;DHT22;53133;52.862;6.602;2022-11-23T00:34:02;8.20;99.90
66328;DHT22;53133;52.862;6.602;2022-11-23T00:36:27;8.20;99.90
66328;DHT22;53133;52.862;6.602;2022-11-23T00:38:54;8.30;99.90
66328;DHT22;53133;52.862;6.602;2022-11-23T00:41:22;8.20;99.90
66328;DHT22;53133;52.862;6.602;2022-11-23T00:43:48;8.20;99.90
66328;DHT22;53133;52.862;6.602;2022-11-23T00:46:17;8.20;99.90
66328;DHT22;53133;52.862;6.602;2022-11-23T00:48:44;8.20;99.90
66328;DHT22;53133;52.862;6.602;2022-11-23T00:51:12;8.20;99.90
66328;DHT22;53133;52.862;6.602;2022-11-23T00:53:38;8.20;99.90
66328;DHT22;53133;52.862;6.602;2022-11-23T00:56:04;8.20;99.90
66328;DHT22;53133;52.862;6.602;2022-11-23T00:58:30;8.20;99.90
66328;DHT22;53133;52.862;6.602;2022-11-23T01:01:15;8.20;99.90
66328;DHT22;53133;52.862;6.602;2022-11-23T01:03:49;8.30;99.90
66328;DHT22;53133;52.862;6.602;2022-11-23T01:06:23;8.30;99.90
66328;DHT22;53133;52.862;6.602;2022-11-23T01:08:51;8.20;99.90
66328;DHT22;53133;52.862;6.602;2022-11-23T01:11:17;8.30;99.90
66328;DHT22;53133;52.862;6.602;2022-11-23T01:13:43;8.30;99.90
66328;DHT22;53133;52.862;6.602;2022-11-23T01:16:14;8.30;99.90
66328;DHT22;53133;52.862;6.602;2022-11-23T01:18:39;8.30;99.90
66328;DHT22;53133;52.862;6.602;2022-11-23T01:21:05;8.30;99.90
66328;DHT22;53133;52.862;6.602;2022-11-23T01:23:31;8.30;99.90
66328;DHT22;53133;52.862;6.602;2022-11-23T01:26:02;8.30;99.90
66328;DHT22;53133;52.862;6.602;2022-11-23T01:28:28;8.30;99.90
66328;DHT22;53133;52.862;6.602;2022-11-23T01:31:09;8.30;99.90
66328;DHT22;53133;52.862;6.602;2022-11-23T01:33:35;8.30;99.90
66328;DHT22;53133;52.862;6.602;2022-11-23T01:38:37;8.30;99.90
66328;DHT22;53133;52.862;6.602;2022-11-23T01:41:04;8.30;99.90
66328;DHT22;53133;52.862;6.602;2022-11-23T01:43:30;8.30;99.90
66328;DHT22;53133;52.862;6.602;2022-11-23T01:45:57;8.30;99.90
66328;DHT22;53133;52.862;6.602;2022-11-23T01:48:30;8.30;99.90
66328;DHT22;53133;52.862;6.602;2022-11-23T01:50:58;8.30;99.90
66328;DHT22;53133;52.862;6.602;2022-11-23T01:53:26;8.30;99.90
66328;DHT22;53133;52.862;6.602;2022-11-23T01:55:55;8.30;99.90
66328;DHT22;53133;52.862;6.602;2022-11-23T01:58:24;8.30;99.90
66328;DHT22;53133;52.862;6.602;2022-11-23T02:00:51;8.30;99.90
66328;DHT22;53133;52.862;6.602;2022-11-23T02:03:17;8.30;99.90
66328;DHT22;53133;52.862;6.602;2022-11-23T02:05:46;8.30;99.90
66328;DHT22;53133;52.862;6.602;2022-11-23T02:08:14;8.40;99.90
66328;DHT22;53133;52.862;6.602;2022-11-23T02:10:40;8.30;99.90
66328;DHT22;53133;52.862;6.602;2022-11-23T02:13:09;8.40;99.90
66328;DHT22;53133;52.862;6.602;2022-11-23T02:15:35;8.40;99.90
66328;DHT22;53133;52.862;6.602;2022-11-23T02:18:03;8.40;99.90
66328;DHT22;53133;52.862;6.602;2022-11-23T02:20:30;8.40;99.90
66328;DHT22;53133;52.862;6.602;2022-11-23T02:28:15;8.40;99.90
66328;DHT22;53133;52.862;6.602;2022-11-23T02:30:44;8.40;99.90
66328;DHT22;53133;52.862;6.602;2022-11-23T02:33:11;8.40;99.90
66328;DHT22;53133;52.862;6.602;2022-11-23T02:35:57;8.40;99.90
66328;DHT22;53133;52.862;6.602;2022-11-23T02:38:25;8.40;99.90
66328;DHT22;53133;52.862;6.602;2022-11-23T02:40:51;8.40;99.90
66328;DHT22;53133;52.862;6.602;2022-11-23T02:43:17;8.40;99.90
66328;DHT22;53133;52.862;6.602;2022-11-23T02:48:18;8.40;99.90
66328;DHT22;53133;52.862;6.602;2022-11-23T02:50:47;8.40;99.90
66328;DHT22;53133;52.862;6.602;2022-11-23T02:53:12;8.40;99.90
66328;DHT22;53133;52.862;6.602;2022-11-23T02:55:38;8.40;99.90
66328;DHT22;53133;52.862;6.602;2022-11-23T02:58:04;8.40;99.90
66328;DHT22;53133;52.862;6.602;2022-11-23T03:00:30;8.40;99.90
66328;DHT22;53133;52.862;6.602;2022-11-23T03:02:58;8.40;99.90
66328;DHT22;53133;52.862;6.602;2022-11-23T03:05:24;8.50;99.90
66328;DHT22;53133;52.862;6.602;2022-11-23T03:07:50;8.40;99.90
66328;DHT22;53133;52.862;6.602;2022-11-23T03:10:16;8.40;99.90
66328;DHT22;53133;52.862;6.602;2022-11-23T03:12:42;8.50;99.90
66328;DHT22;53133;52.862;6.602;2022-11-23T03:15:08;8.50;99.90
66328;DHT22;53133;52.862;6.602;2022-11-23T03:17:34;8.50;99.90
66328;DHT22;53133;52.862;6.602;2022-11-23T03:19:59;8.50;99.90
66328;DHT22;53133;52.862;6.602;2022-11-23T03:22:25;8.50;99.90
66328;DHT22;53133;52.862;6.602;2022-11-23T03:24:50;8.50;99.90
66328;DHT22;53133;52.862;6.602;2022-11-23T03:27:16;8.50;99.90
66328;DHT22;53133;52.862;6.602;2022-11-23T03:29:42;8.50;99.90
66328;DHT22;53133;52.862;6.602;2022-11-23T03:32:07;8.50;99.90
66328;DHT22;53133;52.862;6.602;2022-11-23T03:34:33;8.50;99.90
66328;DHT22;53133;52.862;6.602;2022-11-23T03:36:58;8.50;99.90
66328;DHT22;53133;52.862;6.602;2022-11-23T03:39:24;8.50;99.90
66328;DHT22;53133;52.862;6.602;2022-11-23T03:41:49;8.50;99.90
66328;DHT22;53133;52.862;6.602;2022-11-23T03:44:15;8.50;99.90
66328;DHT22;53133;52.862;6.602;2022-11-23T03:46:40;8.50;99.90
66328;DHT22;53133;52.862;6.602;2022-11-23T03:49:06;8.50;99.90
66328;DHT22;53133;52.862;6.602;2022-11-23T03:51:41;8.50;99.90
66328;DHT22;53133;52.862;6.602;2022-11-23T03:54:06;8.60;99.90
66328;DHT22;53133;52.862;6.602;2022-11-23T03:56:33;8.50;99.90
66328;DHT22;53133;52.862;6.602;2022-11-23T03:58:59;8.60;99.90
66328;DHT22;53133;52.862;6.602;2022-11-23T04:01:24;8.50;99.90
66328;DHT22;53133;52.862;6.602;2022-11-23T04:03:50;8.60;99.90
66328;DHT22;53133;52.862;6.602;2022-11-23T04:06:16;8.60;99.90
66328;DHT22;53133;52.862;6.602;2022-11-23T04:08:41;8.50;99.90
66328;DHT22;53133;52.862;6.602;2022-11-23T04:11:07;8.50;99.90
66328;DHT22;53133;52.862;6.602;2022-11-23T04:13:33;8.50;99.90
66328;DHT22;53133;52.862;6.602;2022-11-23T04:15:58;8.50;99.90
66328;DHT22;53133;52.862;6.602;2022-11-23T04:18:24;8.60;99.90
66328;DHT22;53133;52.862;6.602;2022-11-23T04:20:49;8.50;99.90
66328;DHT22;53133;52.862;6.602;2022-11-23T04:23:15;8.50;99.90
66328;DHT22;53133;52.862;6.602;2022-11-23T04:25:40;8.50;99.90
66328;DHT22;53133;52.862;6.602;2022-11-23T04:28:06;8.50;99.90
66328;DHT22;53133;52.862;6.602;2022-11-23T04:30:32;8.50;99.90
66328;DHT22;53133;52.862;6.602;2022-11-23T04:32:57;8.50;99.90
66328;DHT22;53133;52.862;6.602;2022-11-23T04:35:23;8.50;99.90
66328;DHT22;53133;52.862;6.602;2022-11-23T04:37:48;8.50;99.90
66328;DHT22;53133;52.862;6.602;2022-11-23T04:40:16;8.50;99.90
66328;DHT22;53133;52.862;6.602;2022-11-23T04:42:42;8.50;99.90
66328;DHT22;53133;52.862;6.602;2022-11-23T04:45:08;8.50;99.90
66328;DHT22;53133;52.862;6.602;2022-11-23T04:47:35;8.50;99.90
66328;DHT22;53133;52.862;6.602;2022-11-23T04:50:01;8.50;99.90
66328;DHT22;53133;52.862;6.602;2022-11-23T04:52:26;8.50;99.90
66328;DHT22;53133;52.862;6.602;2022-11-23T04:54:52;8.50;99.90
66328;DHT22;53133;52.862;6.602;2022-11-23T04:57:17;8.50;99.90
66328;DHT22;53133;52.862;6.602;2022-11-23T04:59:43;8.50;99.90
66328;DHT22;53133;52.862;6.602;2022-11-23T05:02:09;8.50;99.90
66328;DHT22;53133;52.862;6.602;2022-11-23T05:04:34;8.50;99.90
66328;DHT22;53133;52.862;6.602;2022-11-23T05:07:00;8.50;99.90
66328;DHT22;53133;52.862;6.602;2022-11-23T05:09:26;8.60;99.90
66328;DHT22;53133;52.862;6.602;2022-11-23T05:11:51;8.50;99.90
66328;DHT22;53133;52.862;6.602;2022-11-23T05:14:17;8.50;99.90
66328;DHT22;53133;52.862;6.602;2022-11-23T05:16:42;8.60;99.90
66328;DHT22;53133;52.862;6.602;2022-11-23T05:19:08;8.50;99.90
66328;DHT22;53133;52.862;6.602;2022-11-23T05:21:33;8.50;99.90
66328;DHT22;53133;52.862;6.602;2022-11-23T05:23:59;8.50;99.90
66328;DHT22;53133;52.862;6.602;2022-11-23T05:26:24;8.50;99.90
66328;DHT22;53133;52.862;6.602;2022-11-23T05:28:50;8.50;99.90
66328;DHT22;53133;52.862;6.602;2022-11-23T05:31:16;8.50;99.90
66328;DHT22;53133;52.862;6.602;2022-11-23T05:33:41;8.50;99.90
66328;DHT22;53133;52.862;6.602;2022-11-23T05:36:07;8.50;99.90
66328;DHT22;53133;52.862;6.602;2022-11-23T05:38:33;8.40;99.90
66328;DHT22;53133;52.862;6.602;2022-11-23T05:40:59;8.50;99.90
66328;DHT22;53133;52.862;6.602;2022-11-23T05:43:24;8.40;99.90
66328;DHT22;53133;52.862;6.602;2022-11-23T05:45:50;8.40;99.90
66328;DHT22;53133;52.862;6.602;2022-11-23T05:48:18;8.40;99.90
66328;DHT22;53133;52.862;6.602;2022-11-23T05:50:44;8.40;99.90
66328;DHT22;53133;52.862;6.602;2022-11-23T05:53:09;8.30;99.90
66328;DHT22;53133;52.862;6.602;2022-11-23T05:55:35;8.30;99.90
66328;DHT22;53133;52.862;6.602;2022-11-23T05:58:03;8.30;99.90
66328;DHT22;53133;52.862;6.602;2022-11-23T06:00:30;8.30;99.90
66328;DHT22;53133;52.862;6.602;2022-11-23T06:03:02;8.30;99.90
66328;DHT22;53133;52.862;6.602;2022-11-23T06:05:28;8.30;99.90
66328;DHT22;53133;52.862;6.602;2022-11-23T06:07:54;8.30;99.90
66328;DHT22;53133;52.862;6.602;2022-11-23T06:10:20;8.30;99.90
66328;DHT22;53133;52.862;6.602;2022-11-23T06:12:45;8.30;99.90
66328;DHT22;53133;52.862;6.602;2022-11-23T06:15:11;8.20;99.90
66328;DHT22;53133;52.862;6.602;2022-11-23T06:17:37;8.20;99.90
66328;DHT22;53133;52.862;6.602;2022-11-23T06:20:05;8.30;99.90
66328;DHT22;53133;52.862;6.602;2022-11-23T06:22:31;8.20;99.90
66328;DHT22;53133;52.862;6.602;2022-11-23T06:24:57;8.20;99.90
66328;DHT22;53133;52.862;6.602;2022-11-23T06:27:22;8.30;99.90
66328;DHT22;53133;52.862;6.602;2022-11-23T06:29:48;8.30;99.90
66328;DHT22;53133;52.862;6.602;2022-11-23T06:32:14;8.30;99.90
66328;DHT22;53133;52.862;6.602;2022-11-23T06:34:40;8.30;99.90
66328;DHT22;53133;52.862;6.602;2022-11-23T06:37:05;8.30;99.90
66328;DHT22;53133;52.862;6.602;2022-11-23T06:39:31;8.30;99.90
66328;DHT22;53133;52.862;6.602;2022-11-23T06:41:56;8.30;99.90
66328;DHT22;53133;52.862;6.602;2022-11-23T06:44:22;8.20;99.90
66328;DHT22;53133;52.862;6.602;2022-11-23T06:46:48;8.20;99.90
66328;DHT22;53133;52.862;6.602;2022-11-23T06:49:13;8.20;99.90
66328;DHT22;53133;52.862;6.602;2022-11-23T06:51:39;8.10;99.90
66328;DHT22;53133;52.862;6.602;2022-11-23T06:54:04;8.10;99.90
66328;DHT22;53133;52.862;6.602;2022-11-23T06:56:30;8.10;99.90
66328;DHT22;53133;52.862;6.602;2022-11-23T06:58:56;8.10;99.90
66328;DHT22;53133;52.862;6.602;2022-11-23T07:01:22;8.00;99.90
66328;DHT22;53133;52.862;6.602;2022-11-23T07:03:47;8.00;99.90
66328;DHT22;53133;52.862;6.602;2022-11-23T07:06:13;8.00;99.90
66328;DHT22;53133;52.862;6.602;2022-11-23T07:08:38;8.00;99.90
66328;DHT22;53133;52.862;6.602;2022-11-23T07:11:09;8.00;99.90
66328;DHT22;53133;52.862;6.602;2022-11-23T07:13:35;8.00;99.90
66328;DHT22;53133;52.862;6.602;2022-11-23T07:16:01;8.00;99.90
66328;DHT22;53133;52.862;6.602;2022-11-23T07:18:26;8.00;99.90
66328;DHT22;53133;52.862;6.602;2022-11-23T07:20:52;8.00;99.90
66328;DHT22;53133;52.862;6.602;2022-11-23T07:23:18;8.10;99.90
66328;DHT22;53133;52.862;6.602;2022-11-23T07:25:43;8.10;99.90
66328;DHT22;53133;52.862;6.602;2022-11-23T07:28:11;8.10;99.90
66328;DHT22;53133;52.862;6.602;2022-11-23T07:30:37;8.10;99.90
66328;DHT22;53133;52.862;6.602;2022-11-23T07:33:08;8.10;99.90
66328;DHT22;53133;52.862;6.602;2022-11-23T07:35:35;8.10;99.90
66328;DHT22;53133;52.862;6.602;2022-11-23T07:38:01;8.10;99.90
66328;DHT22;53133;52.862;6.602;2022-11-23T07:40:27;8.20;99.90
66328;DHT22;53133;52.862;6.602;2022-11-23T07:42:58;8.20;99.90
66328;DHT22;53133;52.862;6.602;2022-11-23T07:45:24;8.20;99.90
66328;DHT22;53133;52.862;6.602;2022-11-23T07:48:00;8.20;99.90
66328;DHT22;53133;52.862;6.602;2022-11-23T07:50:27;8.20;99.90
66328;DHT22;53133;52.862;6.602;2022-11-23T07:52:52;8.20;99.90
66328;DHT22;53133;52.862;6.602;2022-11-23T07:55:18;8.30;99.90
66328;DHT22;53133;52.862;6.602;2022-11-23T07:57:44;8.30;99.90
66328;DHT22;53133;52.862;6.602;2022-11-23T08:00:10;8.30;99.90
66328;DHT22;53133;52.862;6.602;2022-11-23T08:02:36;8.30;99.90
66328;DHT22;53133;52.862;6.602;2022-11-23T08:05:02;8.30;99.90
66328;DHT22;53133;52.862;6.602;2022-11-23T08:07:28;8.40;99.90
66328;DHT22;53133;52.862;6.602;2022-11-23T08:09:53;8.40;99.90
66328;DHT22;53133;52.862;6.602;2022-11-23T08:12:19;8.40;99.90
66328;DHT22;53133;52.862;6.602;2022-11-23T08:14:44;8.40;99.90
66328;DHT22;53133;52.862;6.602;2022-11-23T08:17:10;8.40;99.90
66328;DHT22;53133;52.862;6.602;2022-11-23T08:19:35;8.40;99.90
66328;DHT22;53133;52.862;6.602;2022-11-23T08:22:01;8.40;99.90
66328;DHT22;53133;52.862;6.602;2022-11-23T08:24:26;8.50;99.90
66328;DHT22;53133;52.862;6.602;2022-11-23T08:26:52;8.50;99.90
66328;DHT22;53133;52.862;6.602;2022-11-23T08:29:17;8.50;99.90
66328;DHT22;53133;52.862;6.602;2022-11-23T08:31:43;8.50;99.90
66328;DHT22;53133;52.862;6.602;2022-11-23T08:34:09;8.50;99.90
66328;DHT22;53133;52.862;6.602;2022-11-23T08:36:34;8.50;99.90
66328;DHT22;53133;52.862;6.602;2022-11-23T08:39:01;8.60;99.90
66328;DHT22;53133;52.862;6.602;2022-11-23T08:41:26;8.60;99.90
66328;DHT22;53133;52.862;6.602;2022-11-23T08:43:52;8.60;99.90
66328;DHT22;53133;52.862;6.602;2022-11-23T08:46:17;8.60;99.90
66328;DHT22;53133;52.862;6.602;2022-11-23T08:48:44;8.70;99.90
66328;DHT22;53133;52.862;6.602;2022-11-23T08:51:10;8.70;99.90
66328;DHT22;53133;52.862;6.602;2022-11-23T08:53:36;8.70;99.90
66328;DHT22;53133;52.862;6.602;2022-11-23T08:56:03;8.70;99.90
66328;DHT22;53133;52.862;6.602;2022-11-23T08:58:30;8.70;99.90
66328;DHT22;53133;52.862;6.602;2022-11-23T09:00:55;8.80;99.90
66328;DHT22;53133;52.862;6.602;2022-11-23T09:03:21;8.70;99.90
66328;DHT22;53133;52.862;6.602;2022-11-23T09:05:47;8.70;99.90
66328;DHT22;53133;52.862;6.602;2022-11-23T09:08:12;8.70;99.90
66328;DHT22;53133;52.862;6.602;2022-11-23T09:10:39;8.70;99.90
66328;DHT22;53133;52.862;6.602;2022-11-23T09:13:05;8.80;99.90
66328;DHT22;53133;52.862;6.602;2022-11-23T09:15:30;8.80;99.90
66328;DHT22;53133;52.862;6.602;2022-11-23T09:17:56;8.90;99.90
66328;DHT22;53133;52.862;6.602;2022-11-23T09:20:22;8.90;99.90
66328;DHT22;53133;52.862;6.602;2022-11-23T09:22:52;8.90;99.90
66328;DHT22;53133;52.862;6.602;2022-11-23T09:25:18;9.00;99.90
66328;DHT22;53133;52.862;6.602;2022-11-23T09:27:44;8.90;99.90
66328;DHT22;53133;52.862;6.602;2022-11-23T09:30:10;9.00;99.90
66328;DHT22;53133;52.862;6.602;2022-11-23T09:32:36;9.00;99.90
66328;DHT22;53133;52.862;6.602;2022-11-23T09:35:01;9.10;99.90
66328;DHT22;53133;52.862;6.602;2022-11-23T09:37:27;9.10;99.90
66328;DHT22;53133;52.862;6.602;2022-11-23T09:39:52;9.10;99.90
66328;DHT22;53133;52.862;6.602;2022-11-23T09:42:44;9.10;99.90
66328;DHT22;53133;52.862;6.602;2022-11-23T09:50:49;9.10;99.90
66328;DHT22;53133;52.862;6.602;2022-11-23T09:53:30;9.10;99.90
66328;DHT22;53133;52.862;6.602;2022-11-23T09:55:57;9.10;99.90
66328;DHT22;53133;52.862;6.602;2022-11-23T09:58:29;9.10;99.90
66328;DHT22;53133;52.862;6.602;2022-11-23T10:01:02;9.20;99.90
66328;DHT22;53133;52.862;6.602;2022-11-23T10:03:33;9.20;99.90
66328;DHT22;53133;52.862;6.602;2022-11-23T10:17:38;9.20;99.90
66328;DHT22;53133;52.862;6.602;2022-11-23T10:23:08;9.20;99.90
66328;DHT22;53133;52.862;6.602;2022-11-23T10:25:49;9.20;99.90
66328;DHT22;53133;52.862;6.602;2022-11-23T10:28:17;9.20;99.90
66328;DHT22;53133;52.862;6.602;2022-11-23T10:30:52;9.20;99.90
66328;DHT22;53133;52.862;6.602;2022-11-23T10:33:27;9.20;99.90
66328;DHT22;53133;52.862;6.602;2022-11-23T10:35:54;9.20;99.90
66328;DHT22;53133;52.862;6.602;2022-11-23T10:38:21;9.20;99.90
66328;DHT22;53133;52.862;6.602;2022-11-23T10:41:08;9.30;99.90
66328;DHT22;53133;52.862;6.602;2022-11-23T10:43:37;9.20;99.90
66328;DHT22;53133;52.862;6.602;2022-11-23T10:48:54;9.30;99.90
66328;DHT22;53133;52.862;6.602;2022-11-23T10:51:26;9.30;99.90
66328;DHT22;53133;52.862;6.602;2022-11-23T10:54:46;9.40;99.90
66328;DHT22;53133;52.862;6.602;2022-11-23T10:56:48;9.40;99.90
66328;DHT22;53133;52.862;6.602;2022-11-23T10:59:35;9.40;99.90
66328;DHT22;53133;52.862;6.602;2022-11-23T11:02:17;9.40;99.90
66328;DHT22;53133;52.862;6.602;2022-11-23T11:04:44;9.50;99.90
66328;DHT22;53133;52.862;6.602;2022-11-23T11:07:28;9.50;99.90
66328;DHT22;53133;52.862;6.602;2022-11-23T11:10:01;9.60;99.90
66328;DHT22;53133;52.862;6.602;2022-11-23T11:12:30;9.60;99.90
66328;DHT22;53133;52.862;6.602;2022-11-23T11:14:59;9.60;99.90
66328;DHT22;53133;52.862;6.602;2022-11-23T11:17:33;9.60;99.90
66328;DHT22;53133;52.862;6.602;2022-11-23T11:20:00;9.60;99.90
66328;DHT22;53133;52.862;6.602;2022-11-23T11:22:32;9.60;99.90
66328;DHT22;53133;52.862;6.602;2022-11-23T11:24:59;9.60;99.90
66328;DHT22;53133;52.862;6.602;2022-11-23T11:27:27;9.60;99.90
66328;DHT22;53133;52.862;6.602;2022-11-23T11:30:16;9.60;99.90
66328;DHT22;53133;52.862;6.602;2022-11-23T11:37:50;9.60;99.90
66328;DHT22;53133;52.862;6.602;2022-11-23T11:40:31;9.60;99.90
66328;DHT22;53133;52.862;6.602;2022-11-23T11:45:44;9.60;99.90
66328;DHT22;53133;52.862;6.602;2022-11-23T11:48:33;9.60;99.90
66328;DHT22;53133;52.862;6.602;2022-11-23T11:51:07;9.60;99.90
66328;DHT22;53133;52.862;6.602;2022-11-23T11:58:54;9.70;99.90
66328;DHT22;53133;52.862;6.602;2022-11-23T12:07:26;9.70;99.90
66328;DHT22;53133;52.862;6.602;2022-11-23T12:09:51;9.70;99.90
66328;DHT22;53133;52.862;6.602;2022-11-23T12:12:20;9.70;99.90
66328;DHT22;53133;52.862;6.602;2022-11-23T12:14:46;9.80;99.90
66328;DHT22;53133;52.862;6.602;2022-11-23T12:23:23;9.80;99.90
66328;DHT22;53133;52.862;6.602;2022-11-23T12:34:15;9.80;99.90
66328;DHT22;53133;52.862;6.602;2022-11-23T12:40:11;9.90;99.90
66328;DHT22;53133;52.862;6.602;2022-11-23T12:42:50;9.90;99.90
66328;DHT22;53133;52.862;6.602;2022-11-23T12:51:31;10.00;99.90
66328;DHT22;53133;52.862;6.602;2022-11-23T12:54:38;10.00;99.90
66328;DHT22;53133;52.862;6.602;2022-11-23T12:57:17;10.00;99.90
66328;DHT22;53133;52.862;6.602;2022-11-23T12:59:53;10.00;99.90
66328;DHT22;53133;52.862;6.602;2022-11-23T13:05:24;9.90;99.90
66328;DHT22;53133;52.862;6.602;2022-11-23T13:16:46;9.90;99.90
66328;DHT22;53133;52.862;6.602;2022-11-23T13:22:10;9.90;99.90
66328;DHT22;53133;52.862;6.602;2022-11-23T13:24:38;9.80;99.90
66328;DHT22;53133;52.862;6.602;2022-11-23T13:34:58;9.80;99.90
66328;DHT22;53133;52.862;6.602;2022-11-23T13:37:23;9.80;99.90
66328;DHT22;53133;52.862;6.602;2022-11-23T13:42:15;9.80;99.90
66328;DHT22;53133;52.862;6.602;2022-11-23T13:44:41;9.80;99.90
66328;DHT22;53133;52.862;6.602;2022-11-23T13:49:43;9.80;99.90
66328;DHT22;53133;52.862;6.602;2022-11-23T13:57:21;9.80;99.90
66328;DHT22;53133;52.862;6.602;2022-11-23T13:59:47;9.70;99.90
66328;DHT22;53133;52.862;6.602;2022-11-23T14:04:43;9.70;99.90
66328;DHT22;53133;52.862;6.602;2022-11-23T14:07:36;9.70;99.90
66328;DHT22;53133;52.862;6.602;2022-11-23T14:10:28;9.70;99.90
66328;DHT22;53133;52.862;6.602;2022-11-23T14:13:02;9.60;99.90
66328;DHT22;53133;52.862;6.602;2022-11-23T14:15:35;9.60;99.90
66328;DHT22;53133;52.862;6.602;2022-11-23T14:29:00;9.50;99.90
66328;DHT22;53133;52.862;6.602;2022-11-23T14:37:19;9.40;99.90
66328;DHT22;53133;52.862;6.602;2022-11-23T14:40:13;9.40;99.90
66328;DHT22;53133;52.862;6.602;2022-11-23T14:42:44;9.40;99.90
66328;DHT22;53133;52.862;6.602;2022-11-23T14:45:15;9.30;99.90
66328;DHT22;53133;52.862;6.602;2022-11-23T14:47:40;9.30;99.90
66328;DHT22;53133;52.862;6.602;2022-11-23T14:50:20;9.30;99.90
66328;DHT22;53133;52.862;6.602;2022-11-23T14:52:46;9.30;99.90
66328;DHT22;53133;52.862;6.602;2022-11-23T14:55:24;9.20;99.90
66328;DHT22;53133;52.862;6.602;2022-11-23T14:57:54;9.20;99.90
66328;DHT22;53133;52.862;6.602;2022-11-23T15:00:39;9.20;99.90
66328;DHT22;53133;52.862;6.602;2022-11-23T15:03:13;9.10;99.90
66328;DHT22;53133;52.862;6.602;2022-11-23T15:05:42;9.10;99.90
66328;DHT22;53133;52.862;6.602;2022-11-23T15:11:04;9.00;99.90
66328;DHT22;53133;52.862;6.602;2022-11-23T15:13:50;9.00;99.90
66328;DHT22;53133;52.862;6.602;2022-11-23T15:16:18;9.00;99.90
66328;DHT22;53133;52.862;6.602;2022-11-23T15:18:44;9.00;99.90
66328;DHT22;53133;52.862;6.602;2022-11-23T15:23:47;9.00;99.90
66328;DHT22;53133;52.862;6.602;2022-11-23T15:28:53;9.10;99.90
66328;DHT22;53133;52.862;6.602;2022-11-23T15:33:54;9.10;99.90
66328;DHT22;53133;52.862;6.602;2022-11-23T15:36:35;9.10;99.90
66328;DHT22;53133;52.862;6.602;2022-11-23T15:39:04;9.20;99.90
66328;DHT22;53133;52.862;6.602;2022-11-23T15:41:36;9.10;99.90
66328;DHT22;53133;52.862;6.602;2022-11-23T15:44:15;9.20;99.90
66328;DHT22;53133;52.862;6.602;2022-11-23T15:46:44;9.20;99.90
66328;DHT22;53133;52.862;6.602;2022-11-23T15:49:12;9.20;99.90
66328;DHT22;53133;52.862;6.602;2022-11-23T15:51:40;9.20;99.90
66328;DHT22;53133;52.862;6.602;2022-11-23T15:54:23;9.20;99.90
66328;DHT22;53133;52.862;6.602;2022-11-23T15:56:53;9.20;99.90
66328;DHT22;53133;52.862;6.602;2022-11-23T15:59:42;9.10;99.90
66328;DHT22;53133;52.862;6.602;2022-11-23T16:02:18;9.10;99.90
66328;DHT22;53133;52.862;6.602;2022-11-23T16:04:45;9.10;99.90
66328;DHT22;53133;52.862;6.602;2022-11-23T16:07:24;9.00;99.90
66328;DHT22;53133;52.862;6.602;2022-11-23T16:12:32;9.00;99.90
66328;DHT22;53133;52.862;6.602;2022-11-23T16:18:04;8.90;99.90
66328;DHT22;53133;52.862;6.602;2022-11-23T16:20:31;8.90;99.90
66328;DHT22;53133;52.862;6.602;2022-11-23T16:22:58;8.90;99.90
66328;DHT22;53133;52.862;6.602;2022-11-23T16:25:32;8.90;99.90
66328;DHT22;53133;52.862;6.602;2022-11-23T16:28:26;8.90;99.90
66328;DHT22;53133;52.862;6.602;2022-11-23T16:30:53;8.90;99.90
66328;DHT22;53133;52.862;6.602;2022-11-23T16:33:19;8.90;99.90
66328;DHT22;53133;52.862;6.602;2022-11-23T16:35:46;8.90;99.90
66328;DHT22;53133;52.862;6.602;2022-11-23T16:38:12;8.90;99.90
66328;DHT22;53133;52.862;6.602;2022-11-23T16:40:38;8.90;99.90
66328;DHT22;53133;52.862;6.602;2022-11-23T16:43:04;8.90;99.90
66328;DHT22;53133;52.862;6.602;2022-11-23T16:45:30;8.90;99.90
66328;DHT22;53133;52.862;6.602;2022-11-23T16:47:59;8.90;99.90
66328;DHT22;53133;52.862;6.602;2022-11-23T16:50:30;8.90;99.90
66328;DHT22;53133;52.862;6.602;2022-11-23T16:52:59;8.90;99.90
66328;DHT22;53133;52.862;6.602;2022-11-23T16:55:25;8.90;99.90
66328;DHT22;53133;52.862;6.602;2022-11-23T16:57:51;8.90;99.90
66328;DHT22;53133;52.862;6.602;2022-11-23T17:00:21;9.00;99.90
66328;DHT22;53133;52.862;6.602;2022-11-23T17:02:47;8.90;99.90
66328;DHT22;53133;52.862;6.602;2022-11-23T17:05:17;9.00;99.90
66328;DHT22;53133;52.862;6.602;2022-11-23T17:07:43;8.90;99.90
66328;DHT22;53133;52.862;6.602;2022-11-23T17:10:11;8.90;99.90
66328;DHT22;53133;52.862;6.602;2022-11-23T17:12:37;9.00;99.90
66328;DHT22;53133;52.862;6.602;2022-11-23T17:15:04;8.90;99.90
66328;DHT22;53133;52.862;6.602;2022-11-23T17:17:30;8.90;99.90
66328;DHT22;53133;52.862;6.602;2022-11-23T17:19:56;8.90;99.90
66328;DHT22;53133;52.862;6.602;2022-11-23T17:22:22;8.90;99.90
66328;DHT22;53133;52.862;6.602;2022-11-23T17:24:48;8.90;99.90
66328;DHT22;53133;52.862;6.602;2022-11-23T17:27:21;8.90;99.90
66328;DHT22;53133;52.862;6.602;2022-11-23T17:29:54;8.90;99.90
66328;DHT22;53133;52.862;6.602;2022-11-23T17:32:20;8.80;99.90
66328;DHT22;53133;52.862;6.602;2022-11-23T17:34:45;8.80;99.90
66328;DHT22;53133;52.862;6.602;2022-11-23T17:37:16;8.80;99.90
66328;DHT22;53133;52.862;6.602;2022-11-23T17:39:45;8.80;99.90
66328;DHT22;53133;52.862;6.602;2022-11-23T17:42:11;8.80;99.90
66328;DHT22;53133;52.862;6.602;2022-11-23T17:44:36;8.70;99.90
66328;DHT22;53133;52.862;6.602;2022-11-23T17:47:02;8.80;99.90
66328;DHT22;53133;52.862;6.602;2022-11-23T17:49:28;8.70;99.90
66328;DHT22;53133;52.862;6.602;2022-11-23T17:51:54;8.70;99.90
66328;DHT22;53133;52.862;6.602;2022-11-23T17:54:21;8.70;99.90
66328;DHT22;53133;52.862;6.602;2022-11-23T17:56:48;8.70;99.90
66328;DHT22;53133;52.862;6.602;2022-11-23T17:59:16;8.70;99.90
66328;DHT22;53133;52.862;6.602;2022-11-23T18:01:42;8.70;99.90
66328;DHT22;53133;52.862;6.602;2022-11-23T18:04:07;8.70;99.90
66328;DHT22;53133;52.862;6.602;2022-11-23T18:06:33;8.70;99.90
66328;DHT22;53133;52.862;6.602;2022-11-23T18:08:58;8.70;99.90
66328;DHT22;53133;52.862;6.602;2022-11-23T18:11:24;8.70;99.90
66328;DHT22;53133;52.862;6.602;2022-11-23T18:13:50;8.70;99.90
66328;DHT22;53133;52.862;6.602;2022-11-23T18:16:17;8.70;99.90